Time;durP1;ratioP1;P1;durP2;ratioP2;P2;SDS_P1;SDS_P2;PMS_P1;PMS_P2;Temp;Humidity;BMP_temperature;BMP_pressure;BME280_temperature;BME280_humidity;BME280_pressure;Samples;Min_cycle;Max_cycle;Signal;HPM_P1;HPM_P2
2022/06/28 00:02:05;;;;;;;13.05;2.42;;;;;;;17.87;64.22;101587.22;5067157;28;20506;-69
2022/06/28 00:04:33;;;;;;;8.63;1.80;;;;;;;17.75;64.81;101585.19;5055507;28;20052;-70
2022/06/28 00:07:00;;;;;;;9.50;1.80;;;;;;;17.62;65.59;101582.69;5077347;28;20048;-69
2022/06/28 00:09:28;;;;;;;8.15;1.83;;;;;;;17.72;65.44;101591.44;5067370;28;20507;-69
2022/06/28 00:11:55;;;;;;;8.35;1.70;;;;;;;17.87;64.68;101578.84;5057008;28;20064;-69
2022/06/28 00:17:08;;;;;;;4.97;1.55;;;;;;;17.82;65.26;101568.72;5040176;28;20059;-70
2022/06/28 00:19:36;;;;;;;6.95;1.73;;;;;;;17.93;64.76;101574.72;5076773;28;20057;-69
2022/06/28 00:22:03;;;;;;;6.07;1.52;;;;;;;17.71;65.51;101570.28;5041146;28;20420;-71
2022/06/28 00:24:31;;;;;;;8.88;2.20;;;;;;;17.58;66.10;101568.63;5019041;28;20057;-70
2022/06/28 00:26:59;;;;;;;8.27;1.75;;;;;;;17.49;66.65;101573.44;5069335;28;20428;-70
2022/06/28 00:29:26;;;;;;;11.05;2.17;;;;;;;17.79;65.89;101572.22;5054775;28;20060;-69
2022/06/28 00:31:54;;;;;;;10.15;2.08;;;;;;;17.96;64.80;101569.25;5057697;28;20056;-71
2022/06/28 00:34:21;;;;;;;8.93;1.80;;;;;;;18.42;63.50;101568.16;5064530;28;20052;-69
2022/06/28 00:36:49;;;;;;;10.25;1.73;;;;;;;18.04;64.16;101575.09;5088427;28;20059;-69
2022/06/28 00:39:16;;;;;;;9.45;2.28;;;;;;;18.23;63.43;101575.41;5058865;28;20063;-71
2022/06/28 00:41:44;;;;;;;10.23;1.83;;;;;;;18.27;63.58;101567.97;5042396;28;20053;-69
2022/06/28 00:44:13;;;;;;;8.88;2.10;;;;;;;18.44;62.41;101565.03;5075091;28;20487;-70
2022/06/28 00:46:41;;;;;;;6.55;1.40;;;;;;;18.47;62.66;101558.75;5067128;28;20391;-70
2022/06/28 00:49:10;;;;;;;5.57;1.33;;;;;;;18.28;63.12;101566.81;5072820;28;20063;-70
2022/06/28 00:51:38;;;;;;;8.77;1.67;;;;;;;18.18;63.60;101572.81;5069096;28;20507;-70
2022/06/28 00:54:06;;;;;;;6.68;1.92;;;;;;;18.01;63.94;101567.44;5075877;28;20055;-69
2022/06/28 00:56:33;;;;;;;9.90;1.95;;;;;;;17.79;64.75;101563.03;5042627;28;20547;-70
2022/06/28 00:59:01;;;;;;;8.30;1.77;;;;;;;18.07;64.08;101561.28;5060511;28;20060;-70
2022/06/28 01:01:29;;;;;;;7.75;1.48;;;;;;;17.86;64.23;101557.72;5072289;28;20396;-70
2022/06/28 01:03:58;;;;;;;8.10;2.08;;;;;;;17.76;64.61;101564.53;5062805;28;20057;-70
2022/06/28 01:06:25;;;;;;;7.20;1.83;;;;;;;17.77;64.83;101568.13;5067926;28;20051;-69
2022/06/28 01:08:53;;;;;;;8.27;1.48;;;;;;;18.00;64.44;101569.41;5051494;28;20060;-69
2022/06/28 01:11:28;;;;;;;6.65;1.67;;;;;;;17.99;64.22;101559.41;5069993;28;20067;-70
2022/06/28 01:14:07;;;;;;;6.22;1.60;;;;;;;17.90;64.03;101564.25;5058307;28;20044;-69
2022/06/28 01:16:53;;;;;;;10.23;1.48;;;;;;;17.86;64.31;101557.72;5034811;28;20045;-69
2022/06/28 01:19:28;;;;;;;6.80;1.50;;;;;;;17.72;65.17;101557.19;5054209;28;20052;-69
2022/06/28 01:22:03;;;;;;;7.53;1.73;;;;;;;17.67;65.16;101563.78;5058361;28;20144;-69
2022/06/28 01:24:31;;;;;;;9.88;1.63;;;;;;;17.94;64.31;101556.81;5041912;28;20427;-70
2022/06/28 01:27:06;;;;;;;7.28;1.83;;;;;;;18.19;63.50;101552.97;5058763;28;20055;-69
2022/06/28 01:29:33;;;;;;;6.80;1.75;;;;;;;18.15;63.44;101554.78;5043741;28;20048;-69
2022/06/28 01:32:21;;;;;;;7.35;2.08;;;;;;;18.25;63.50;101559.13;5054163;28;20431;-68
2022/06/28 01:34:48;;;;;;;6.32;1.75;;;;;;;18.20;63.08;101560.16;5068371;28;20063;-68
2022/06/28 01:37:19;;;;;;;7.40;1.60;;;;;;;18.19;63.46;101563.28;5057971;28;20045;-68
2022/06/28 01:39:46;;;;;;;6.82;1.52;;;;;;;18.14;63.06;101557.94;5057964;28;20554;-68
2022/06/28 01:42:14;;;;;;;9.15;1.60;;;;;;;18.07;63.66;101549.31;5060511;28;20048;-68
2022/06/28 01:44:43;;;;;;;7.15;1.30;;;;;;;18.18;63.35;101554.13;5031948;28;20052;-68
2022/06/28 01:47:29;;;;;;;7.70;1.90;;;;;;;18.12;63.16;101551.88;5090049;28;20057;-69
2022/06/28 01:50:03;;;;;;;8.15;1.60;;;;;;;18.01;63.36;101557.06;5042627;28;20519;-69
2022/06/28 01:52:41;;;;;;;10.55;2.00;;;;;;;17.80;64.12;101553.53;5065512;28;20053;-69
2022/06/28 01:55:29;;;;;;;11.15;2.15;;;;;;;17.94;63.67;101559.59;5057114;28;20071;-69
2022/06/28 01:57:58;;;;;;;7.82;1.67;;;;;;;17.66;64.88;101561.34;5065513;28;20098;-69
2022/06/28 02:00:26;;;;;;;7.18;1.55;;;;;;;17.89;64.22;101552.28;5055665;28;20064;-70
2022/06/28 02:02:58;;;;;;;7.07;1.50;;;;;;;17.85;64.31;101545.75;5038366;28;20049;-69
2022/06/28 02:05:26;;;;;;;9.05;1.90;;;;;;;17.91;64.04;101549.97;5100023;28;20441;-69
2022/06/28 02:07:55;;;;;;;9.38;1.65;;;;;;;17.81;64.06;101546.78;5057957;28;20056;-69
2022/06/28 02:10:24;;;;;;;6.45;1.90;;;;;;;17.81;63.99;101555.97;5057348;28;20060;-70
2022/06/28 02:12:52;;;;;;;8.88;1.73;;;;;;;17.72;64.93;101546.03;5067726;28;20060;-69
2022/06/28 02:15:19;;;;;;;8.18;1.58;;;;;;;17.76;64.48;101545.03;5059280;28;20048;-68
2022/06/28 02:17:47;;;;;;;8.68;1.83;;;;;;;17.87;64.03;101545.41;5073653;28;20407;-69
2022/06/28 02:20:15;;;;;;;3.33;1.25;;;;;;;18.14;63.28;101546.78;5057426;28;20040;-69
2022/06/28 02:22:43;;;;;;;6.50;1.55;;;;;;;17.91;62.55;101546.34;5083662;28;20052;-68
2022/06/28 02:25:10;;;;;;;6.45;1.10;;;;;;;17.76;63.56;101538.63;5044681;28;20051;-68
2022/06/28 02:27:38;;;;;;;6.88;1.63;;;;;;;17.80;63.76;101543.16;5053749;28;20055;-68
2022/06/28 02:30:06;;;;;;;5.05;1.00;;;;;;;17.84;63.07;101548.88;5054683;28;20048;-69
2022/06/28 02:32:34;;;;;;;7.75;1.40;;;;;;;17.56;63.35;101545.03;5053558;28;20048;-68
2022/06/28 02:40:34;;;;;;;3.90;1.10;;;;;;;17.84;62.69;101543.31;5074585;28;20051;-69
2022/06/28 02:43:01;;;;;;;6.75;1.40;;;;;;;17.78;62.42;101550.25;5065771;28;20515;-68
2022/06/28 02:45:32;;;;;;;3.83;1.10;;;;;;;17.76;62.70;101542.25;5074940;28;20059;-68
2022/06/28 02:47:59;;;;;;;8.55;1.00;;;;;;;17.79;62.55;101543.53;5035228;28;20052;-68
2022/06/28 02:50:27;;;;;;;7.00;1.10;;;;;;;17.71;63.29;101544.41;5044848;28;20048;-68
2022/06/28 02:52:55;;;;;;;10.52;1.70;;;;;;;17.68;62.86;101547.88;5062638;28;20052;-68
2022/06/28 02:55:23;;;;;;;9.60;1.70;;;;;;;17.66;63.36;101541.84;5057777;28;20052;-69
2022/06/28 02:57:50;;;;;;;9.05;1.30;;;;;;;17.69;63.15;101543.94;5062170;28;20051;-69
2022/06/28 03:00:19;;;;;;;6.63;1.33;;;;;;;17.71;62.79;101545.22;5052535;28;20051;-68
2022/06/28 03:02:48;;;;;;;5.32;1.23;;;;;;;17.86;62.63;101550.19;5059730;28;20044;-68
2022/06/28 03:05:19;;;;;;;11.15;1.60;;;;;;;17.91;62.07;101549.13;5040243;28;20083;-69
2022/06/28 03:07:47;;;;;;;5.35;1.27;;;;;;;17.90;62.44;101539.94;5059495;28;20539;-69
2022/06/28 03:10:15;;;;;;;7.57;1.35;;;;;;;17.74;62.27;101541.78;5057037;28;20056;-68
2022/06/28 03:12:42;;;;;;;9.88;1.70;;;;;;;17.99;61.20;101540.69;5056790;28;20040;-68
2022/06/28 03:15:11;;;;;;;6.45;1.42;;;;;;;17.92;60.76;101534.84;5055202;28;20049;-68
2022/06/28 03:17:41;;;;;;;2.45;1.00;;;;;;;17.84;61.29;101543.31;5036678;28;20037;-68
2022/06/28 03:20:11;;;;;;;6.63;1.35;;;;;;;17.75;61.54;101542.56;5038255;28;20049;-69
2022/06/28 03:22:39;;;;;;;7.45;1.23;;;;;;;17.63;62.02;101536.94;5080951;28;20531;-69
2022/06/28 03:25:08;;;;;;;5.05;1.23;;;;;;;17.76;61.29;101539.47;5059498;28;20053;-68
2022/06/28 03:27:36;;;;;;;3.40;0.93;;;;;;;17.58;61.87;101546.31;5084420;28;20052;-69
2022/06/28 03:30:05;;;;;;;5.85;1.20;;;;;;;17.38;62.26;101549.09;5042326;28;20052;-67
2022/06/28 03:32:32;;;;;;;6.53;1.55;;;;;;;17.51;62.54;101543.28;5036195;28;20044;-69
2022/06/28 03:35:02;;;;;;;5.68;1.30;;;;;;;17.27;62.92;101545.88;5084598;28;20444;-68
2022/06/28 03:37:30;;;;;;;8.95;1.55;;;;;;;17.25;62.88;101539.00;5071105;28;20044;-69
2022/06/28 03:40:00;;;;;;;8.18;1.20;;;;;;;17.34;62.46;101545.34;5055636;28;20049;-68
2022/06/28 03:42:28;;;;;;;6.22;1.30;;;;;;;16.91;63.49;101553.16;5043322;28;20411;-68
2022/06/28 03:44:56;;;;;;;7.25;1.40;;;;;;;17.13;63.20;101548.09;5035173;28;20056;-69
2022/06/28 03:47:24;;;;;;;5.43;1.40;;;;;;;16.93;63.54;101540.50;5055445;28;20064;-69
2022/06/28 03:49:54;;;;;;;;;;;;;;;17.06;63.51;101547.81;5061347;28;20048;-68
2022/06/28 03:52:40;;;;;;;5.05;1.40;;;;;;;17.45;62.84;101547.38;5057856;28;19921;-70
2022/06/28 03:55:26;;;;;;;6.50;1.45;;;;;;;17.59;62.03;101547.16;5048931;28;20056;-70
2022/06/28 03:57:55;;;;;;;7.10;1.52;;;;;;;17.71;61.91;101547.22;5064187;28;20049;-70
2022/06/28 04:00:23;;;;;;;3.97;1.10;;;;;;;17.73;61.24;101553.25;5040817;28;20044;-69
2022/06/28 04:02:51;;;;;;;5.65;1.15;;;;;;;17.79;60.90;101547.13;5055590;28;20052;-69
2022/06/28 04:05:25;;;;;;;6.13;1.30;;;;;;;17.55;61.59;101544.22;5056967;28;20048;-69
2022/06/28 04:07:54;;;;;;;6.93;1.33;;;;;;;16.98;63.33;101561.78;5043434;28;20083;-69
2022/06/28 04:10:37;;;;;;;7.28;1.65;;;;;;;17.18;63.02;101553.47;5056542;28;20150;-69
2022/06/28 04:13:11;;;;;;;7.15;1.42;;;;;;;17.40;62.23;101558.72;5059531;28;20057;-70
2022/06/28 04:15:39;;;;;;;6.22;1.50;;;;;;;17.29;62.01;101562.25;5068730;28;20039;-69
2022/06/28 04:18:10;;;;;;;9.48;1.35;;;;;;;17.24;62.19;101557.72;5070945;28;20037;-69
2022/06/28 04:20:41;;;;;;;6.75;1.33;;;;;;;17.20;62.27;101550.34;5070196;28;20047;-69
2022/06/28 04:23:10;;;;;;;7.95;1.48;;;;;;;17.37;61.63;101559.41;5068674;28;20052;-69
2022/06/28 04:25:39;;;;;;;10.10;1.73;;;;;;;17.49;61.57;101561.47;5046186;28;20048;-68
2022/06/28 04:28:17;;;;;;;8.27;1.42;;;;;;;17.46;61.50;101565.75;5047444;28;20044;-68
2022/06/28 04:30:57;;;;;;;7.60;1.40;;;;;;;17.49;61.58;101562.28;5037700;28;20052;-68
2022/06/28 04:33:26;;;;;;;8.20;1.88;;;;;;;17.70;60.61;101556.72;5051952;28;20052;-69
2022/06/28 04:35:53;;;;;;;7.40;2.10;;;;;;;17.56;61.08;101557.00;5066808;28;20051;-70
2022/06/28 04:38:22;;;;;;;6.65;1.70;;;;;;;17.77;61.29;101568.94;5063656;28;20075;-69
2022/06/28 04:40:59;;;;;;;10.55;1.50;;;;;;;17.88;60.56;101561.81;5055566;28;20045;-68
2022/06/28 04:43:56;;;;;;;6.20;1.25;;;;;;;17.91;59.34;101565.88;5052436;28;20052;-69
2022/06/28 04:46:32;;;;;;;6.97;1.40;;;;;;;17.73;59.83;101567.97;5038350;28;20053;-69
2022/06/28 04:49:10;;;;;;;6.05;1.23;;;;;;;17.70;59.42;101579.81;5089001;28;20617;-68
2022/06/28 04:51:42;;;;;;;5.95;1.40;;;;;;;17.83;59.05;101566.78;5057302;28;20040;-69
2022/06/28 04:54:13;;;;;;;5.93;1.20;;;;;;;18.00;nan;101563.81;5062093;28;20052;-69
2022/06/28 04:57:01;;;;;;;6.95;1.20;;;;;;;17.79;58.59;101569.44;5045696;28;20052;-68
2022/06/28 04:59:29;;;;;;;6.40;1.38;;;;;;;17.75;59.11;101571.25;5061967;28;20056;-69
2022/06/28 05:01:58;;;;;;;5.95;1.10;;;;;;;17.75;58.65;101576.00;5046277;28;20048;-69
2022/06/28 05:04:25;;;;;;;5.70;1.10;;;;;;;17.85;58.65;101570.03;5078504;28;20705;-68
2022/06/28 05:07:03;;;;;;;7.63;1.95;;;;;;;17.90;58.45;101570.63;5058326;28;20605;-69
2022/06/28 05:09:30;;;;;;;8.45;1.23;;;;;;;17.63;58.92;101568.41;5056048;28;20048;-68
2022/06/28 05:12:04;;;;;;;5.57;1.70;;;;;;;17.69;59.05;101581.00;5024880;28;20053;-69
2022/06/28 05:14:35;;;;;;;8.32;1.70;;;;;;;17.87;59.14;101576.88;5077901;28;20048;-69
2022/06/28 05:17:03;;;;;;;7.97;1.45;;;;;;;18.07;58.53;101579.97;5061713;28;20053;-69
2022/06/28 05:19:33;;;;;;;8.63;1.60;;;;;;;18.06;58.46;101583.94;5089944;28;20052;-69
2022/06/28 05:22:01;;;;;;;6.22;1.05;;;;;;;18.42;57.92;101581.28;5064074;28;20419;-70
2022/06/28 05:24:33;;;;;;;6.63;1.58;;;;;;;18.55;56.59;101580.97;5044523;28;20052;-69
2022/06/28 05:27:04;;;;;;;6.88;1.13;;;;;;;18.58;55.94;101577.50;5057545;28;20053;-69
2022/06/28 05:29:37;;;;;;;11.02;1.45;;;;;;;18.44;55.88;101579.78;5038745;28;20538;-69
2022/06/28 05:32:05;;;;;;;5.68;1.45;;;;;;;18.49;55.37;101575.97;5060742;28;20064;-70
2022/06/28 05:34:33;;;;;;;5.50;1.00;;;;;;;18.47;55.04;101576.31;5052676;28;20396;-69
2022/06/28 05:37:00;;;;;;;10.00;1.58;;;;;;;18.44;54.67;101578.97;5045291;28;20412;-70
2022/06/28 05:39:29;;;;;;;7.20;1.10;;;;;;;18.26;55.73;101571.91;5069741;28;20072;-69
2022/06/28 05:41:56;;;;;;;5.13;1.40;;;;;;;18.36;55.40;101575.06;5079158;28;20049;-69
2022/06/28 05:44:24;;;;;;;5.88;1.15;;;;;;;18.34;55.65;101563.44;5047594;28;20053;-69
2022/06/28 05:46:51;;;;;;;6.63;0.93;;;;;;;18.47;55.13;101576.31;5075640;28;20435;-69
2022/06/28 05:49:19;;;;;;;6.30;1.80;;;;;;;18.65;54.70;101572.16;5056714;28;20052;-69
2022/06/28 05:51:47;;;;;;;7.32;1.33;;;;;;;18.61;53.47;101562.84;5061867;28;20040;-69
2022/06/28 05:54:14;;;;;;;4.32;1.13;;;;;;;18.39;53.81;101566.03;5056711;28;20059;-68
2022/06/28 05:56:42;;;;;;;9.10;1.33;;;;;;;18.31;54.31;101560.53;5076645;28;20057;-69
2022/06/28 05:59:09;;;;;;;7.22;1.20;;;;;;;18.28;54.19;101552.88;5056760;28;20420;-70
2022/06/28 06:01:36;;;;;;;5.55;1.27;;;;;;;18.24;54.53;101551.91;5077029;28;20048;-69
2022/06/28 06:04:04;;;;;;;6.88;1.42;;;;;;;18.49;54.92;101557.25;5061184;28;20424;-69
2022/06/28 06:06:31;;;;;;;4.55;1.02;;;;;;;18.56;53.22;101560.28;5057161;28;20055;-67
2022/06/28 06:08:59;;;;;;;6.05;1.20;;;;;;;18.61;53.31;101565.63;5057571;28;20043;-70
2022/06/28 06:11:29;;;;;;;;;;;;;;;18.63;53.27;101568.06;5086481;28;20293;-68
2022/06/28 06:13:56;;;;;;;5.95;1.30;;;;;;;18.67;53.40;101560.66;5066311;28;19931;-70
2022/06/28 06:16:23;;;;;;;12.30;1.20;;;;;;;18.81;53.79;101558.34;5073184;28;20051;-70
2022/06/28 06:18:51;;;;;;;7.00;1.15;;;;;;;19.07;53.22;101554.00;5072232;28;20044;-70
2022/06/28 06:21:19;;;;;;;5.22;1.67;;;;;;;19.35;53.00;101561.69;5070318;28;20405;-72
2022/06/28 06:23:47;;;;;;;5.05;0.98;;;;;;;19.40;52.17;101548.31;5040346;28;20057;-72
2022/06/28 06:26:46;;;;;;;5.13;1.30;;;;;;;19.28;52.79;101553.88;5053839;28;20053;-73
2022/06/28 06:29:14;;;;;;;7.13;1.42;;;;;;;19.20;52.12;101545.59;5049007;28;20044;-74
2022/06/28 06:31:41;;;;;;;8.95;1.65;;;;;;;19.25;52.54;101548.97;5057407;28;20071;-72
2022/06/28 06:34:27;;;;;;;7.53;1.45;;;;;;;19.47;52.52;101540.16;5072296;28;20055;-73
2022/06/28 06:37:04;;;;;;;5.88;1.15;;;;;;;19.77;51.26;101543.44;5048393;28;20056;-71
2022/06/28 06:39:33;;;;;;;7.75;1.40;;;;;;;19.52;51.52;101542.69;5057109;28;20048;-70
2022/06/28 06:42:02;;;;;;;6.97;1.30;;;;;;;19.60;51.82;101538.09;5055327;28;20045;-71
2022/06/28 06:44:29;;;;;;;4.43;1.10;;;;;;;19.77;50.91;101532.25;5053713;28;20519;-71
2022/06/28 06:47:01;;;;;;;6.47;1.35;;;;;;;19.62;51.01;101546.94;5036224;28;20048;-71
2022/06/28 06:49:29;;;;;;;4.90;1.40;;;;;;;19.60;51.20;101541.72;5050472;28;20052;-72
2022/06/28 06:51:56;;;;;;;9.77;1.42;;;;;;;19.54;51.18;101540.34;5019995;28;20049;-71
2022/06/28 06:54:23;;;;;;;4.20;1.20;;;;;;;19.53;51.07;101547.09;5054103;28;20052;-72
2022/06/28 06:56:51;;;;;;;5.88;1.23;;;;;;;19.62;51.33;101542.19;5037563;28;20052;-73
2022/06/28 06:59:18;;;;;;;3.50;1.15;;;;;;;19.85;50.99;101537.69;5043457;28;20049;-73
2022/06/28 07:01:47;;;;;;;8.77;1.95;;;;;;;19.96;50.74;101526.78;5070191;28;20056;-72
2022/06/28 07:04:20;;;;;;;14.23;1.95;;;;;;;19.98;49.86;101535.63;5055755;28;20048;-72
2022/06/28 07:06:48;;;;;;;7.03;1.33;;;;;;;20.17;50.08;101530.22;5028578;28;20049;-72
2022/06/28 07:09:15;;;;;;;3.28;1.08;;;;;;;20.37;49.24;101525.53;5051792;28;20052;-73
2022/06/28 07:11:43;;;;;;;6.72;1.33;;;;;;;20.17;49.62;101517.03;5071487;28;20691;-73
2022/06/28 07:14:10;;;;;;;7.40;1.88;;;;;;;20.09;49.82;101512.38;5055657;28;20045;-74
2022/06/28 07:16:38;;;;;;;6.25;1.48;;;;;;;20.36;49.73;101523.91;5040369;28;20063;-73
2022/06/28 07:19:05;;;;;;;8.52;1.45;;;;;;;20.46;49.08;101515.78;5065029;28;20703;-74
2022/06/28 07:21:33;;;;;;;7.35;1.50;;;;;;;20.53;49.09;101512.34;5080317;28;20052;-74
2022/06/28 07:24:01;;;;;;;4.45;1.50;;;;;;;20.55;49.25;101496.84;5063767;28;20036;-73
2022/06/28 07:26:30;;;;;;;;;;;;;;;20.38;48.99;101499.97;5072759;28;20399;-73
2022/06/28 07:28:58;;;;;;;7.30;1.48;;;;;;;20.42;49.73;101509.28;5038902;28;20303;-73
2022/06/28 07:31:27;;;;;;;6.97;1.58;;;;;;;20.66;49.22;101492.28;5041366;28;20602;-73
2022/06/28 07:33:55;;;;;;;6.95;1.83;;;;;;;21.10;48.52;101488.19;5068632;28;20051;-73
2022/06/28 07:36:25;;;;;;;10.07;1.50;;;;;;;21.31;47.41;101489.84;5033409;28;20526;-73
2022/06/28 07:38:54;;;;;;;5.22;1.45;;;;;;;21.34;47.05;101491.94;5051684;28;20052;-73
2022/06/28 07:41:23;;;;;;;8.63;1.88;;;;;;;21.45;46.40;101488.16;5083952;28;20052;-72
2022/06/28 07:44:09;;;;;;;8.15;1.52;;;;;;;22.04;45.38;101487.78;5079425;28;20389;-73
2022/06/28 07:46:37;;;;;;;9.23;1.70;;;;;;;21.90;45.61;101476.28;5057092;28;20048;-74
2022/06/28 07:49:04;;;;;;;5.30;1.80;;;;;;;22.61;44.50;101481.22;5036790;28;20064;-74
2022/06/28 07:54:20;;;;;;;11.95;2.00;;;;;;;22.79;43.81;101466.25;5063873;28;20056;-73
2022/06/28 07:57:00;;;;;;;8.15;3.08;;;;;;;22.97;43.00;101475.78;5038486;28;20058;-72
2022/06/28 07:59:29;;;;;;;10.05;2.50;;;;;;;23.37;42.75;101469.53;5063691;28;20060;-72
2022/06/28 08:01:57;;;;;;;5.63;1.80;;;;;;;23.50;42.34;101459.66;5044857;28;20044;-72
2022/06/28 08:04:33;;;;;;;9.18;1.75;;;;;;;23.40;42.04;101457.50;5059209;28;20056;-71
2022/06/28 08:07:02;;;;;;;9.35;2.13;;;;;;;23.42;41.88;101461.56;5096279;28;20044;-71
2022/06/28 08:09:30;;;;;;;7.03;1.92;;;;;;;23.68;41.34;101462.66;5074093;28;20051;-71
2022/06/28 08:11:59;;;;;;;7.75;1.70;;;;;;;23.38;41.92;101468.31;5040519;28;20044;-72
2022/06/28 08:14:28;;;;;;;11.13;2.13;;;;;;;23.55;42.04;101464.97;5061687;28;21382;-71
2022/06/28 08:16:56;;;;;;;9.13;2.00;;;;;;;23.36;41.46;101449.03;5063728;28;20044;-70
2022/06/28 08:19:24;;;;;;;5.50;1.50;;;;;;;23.00;42.52;101454.53;5040392;28;20053;-73
2022/06/28 08:21:52;;;;;;;7.00;2.60;;;;;;;23.63;41.54;101446.97;5071691;28;20055;-72
2022/06/28 08:24:19;;;;;;;5.28;1.80;;;;;;;23.70;40.99;101443.41;5084438;28;20048;-69
2022/06/28 08:26:48;;;;;;;8.70;1.80;;;;;;;23.54;41.87;101443.63;5067895;28;20044;-72
2022/06/28 08:29:17;;;;;;;12.68;1.77;;;;;;;23.13;42.38;101447.50;5059678;28;20690;-71
2022/06/28 08:31:44;;;;;;;7.00;1.70;;;;;;;23.58;41.48;101438.88;5065039;28;20055;-72
2022/06/28 08:34:11;;;;;;;9.20;1.33;;;;;;;23.66;41.19;101434.16;5076074;28;20052;-71
2022/06/28 08:36:39;;;;;;;8.05;1.40;;;;;;;23.75;41.43;101440.25;5076975;28;20150;-71
2022/06/28 08:39:06;;;;;;;7.82;1.75;;;;;;;23.96;40.85;101438.47;5053744;28;20055;-70
2022/06/28 08:41:34;;;;;;;6.22;1.70;;;;;;;23.85;40.68;101426.28;5070480;28;20041;-70
2022/06/28 08:44:02;;;;;;;6.35;1.58;;;;;;;23.57;40.97;101434.44;5071055;28;20048;-71
2022/06/28 08:46:31;;;;;;;11.30;2.28;;;;;;;23.82;40.36;101424.25;5074691;28;20044;-70
2022/06/28 08:49:07;;;;;;;9.47;2.03;;;;;;;23.79;40.24;101427.03;5052708;28;20043;-71
2022/06/28 08:51:34;;;;;;;9.32;1.73;;;;;;;23.53;40.47;101418.72;5053380;28;20307;-76
2022/06/28 08:54:03;;;;;;;7.55;1.80;;;;;;;23.93;40.23;101413.94;5049708;28;20041;-72
2022/06/28 08:56:31;;;;;;;6.55;1.88;;;;;;;24.10;39.40;101413.31;5073457;28;20620;-71
2022/06/28 08:58:59;;;;;;;7.95;1.52;;;;;;;23.96;39.45;101403.88;5069466;28;20048;-70
2022/06/28 09:01:27;;;;;;;9.93;2.40;;;;;;;23.87;39.23;101394.97;5043190;28;20494;-72
2022/06/28 09:03:55;;;;;;;7.97;1.70;;;;;;;23.73;38.52;101387.19;5085078;28;20503;-71
2022/06/28 09:06:26;;;;;;;9.90;1.73;;;;;;;23.26;39.68;101384.19;5091302;28;20056;-70
2022/06/28 09:08:53;;;;;;;10.93;1.67;;;;;;;23.39;39.27;101394.88;5027980;28;20048;-71
2022/06/28 09:11:20;;;;;;;8.73;2.05;;;;;;;23.41;39.32;101392.44;5080808;28;20049;-72
2022/06/28 09:13:48;;;;;;;6.78;1.75;;;;;;;23.03;39.67;101386.34;5072608;28;20056;-72
2022/06/28 09:16:15;;;;;;;10.77;1.77;;;;;;;23.25;39.77;101377.78;5050824;28;20068;-73
2022/06/28 09:18:45;;;;;;;5.28;1.33;;;;;;;23.43;39.15;101376.00;5033405;28;20044;-73
2022/06/28 09:21:14;;;;;;;;;;;;;;;23.54;37.65;101372.53;5045687;28;20041;-71
2022/06/28 09:23:44;;;;;;;8.18;1.58;;;;;;;23.73;37.13;101373.13;5047270;28;19924;-72
2022/06/28 09:26:17;;;;;;;5.65;1.40;;;;;;;23.93;36.91;101366.09;5036068;28;20044;-71
2022/06/28 09:28:47;;;;;;;5.65;1.42;;;;;;;23.83;37.02;101364.00;5040213;28;20052;-72
2022/06/28 09:31:14;;;;;;;5.95;1.35;;;;;;;24.16;37.15;101354.66;5077330;28;20059;-72
2022/06/28 09:33:50;;;;;;;10.60;1.95;;;;;;;24.29;36.43;101347.50;5066787;28;20049;-72
2022/06/28 09:36:18;;;;;;;7.80;1.88;;;;;;;24.19;35.94;101356.69;5050107;28;20049;-72
2022/06/28 09:38:45;;;;;;;5.13;1.55;;;;;;;24.25;35.61;101352.31;5081485;28;20415;-71
2022/06/28 09:41:25;;;;;;;10.23;2.38;;;;;;;24.23;34.94;101355.50;5075085;28;20044;-73
2022/06/28 09:43:58;;;;;;;10.98;1.42;;;;;;;24.18;34.45;101353.06;5078731;28;20063;-72
2022/06/28 09:46:28;;;;;;;8.63;1.15;;;;;;;23.69;36.23;101348.97;5078612;28;20556;-71
2022/06/28 09:48:57;;;;;;;6.88;1.40;;;;;;;23.65;36.80;101345.31;5051723;28;20079;-72
2022/06/28 09:51:26;;;;;;;7.33;1.37;;;;;;;23.77;35.65;101347.84;5073199;28;20567;-71
2022/06/28 09:53:57;;;;;;;5.82;1.50;;;;;;;23.65;35.00;101337.69;5069020;28;20303;-72
2022/06/28 09:56:50;;;;;;;10.85;1.58;;;;;;;23.65;35.74;101334.06;5075434;28;20044;-72
2022/06/28 09:59:18;;;;;;;12.48;1.52;;;;;;;23.74;35.08;101341.00;5049234;28;20475;-71
2022/06/28 10:01:47;;;;;;;5.72;1.20;;;;;;;23.97;35.73;101338.75;5040778;28;20052;-71
2022/06/28 10:04:18;;;;;;;6.40;1.13;;;;;;;23.89;35.62;101325.84;5074362;28;20048;-72
2022/06/28 10:06:46;;;;;;;8.18;1.55;;;;;;;23.89;35.47;101328.66;5040682;28;20500;-69
2022/06/28 10:09:14;;;;;;;6.55;1.17;;;;;;;23.80;35.27;101318.94;5074663;28;20055;-69
2022/06/28 10:17:28;;;;;;;15.82;1.95;;;;;;;24.28;35.65;101318.56;5076131;28;20415;-69
2022/06/28 10:19:57;;;;;;;5.75;1.50;;;;;;;24.24;35.54;101312.09;5062687;28;20055;-69
2022/06/28 10:22:24;;;;;;;3.20;1.02;;;;;;;23.97;35.04;101315.47;5058402;28;20044;-68
2022/06/28 10:24:59;;;;;;;13.25;1.40;;;;;;;24.04;35.50;101301.47;5063196;28;20052;-68
2022/06/28 10:27:28;;;;;;;9.13;2.38;;;;;;;23.73;35.69;101299.97;5063576;28;20045;-68
2022/06/28 10:30:07;;;;;;;5.03;1.85;;;;;;;23.71;34.87;101305.16;5056006;28;20075;-68
2022/06/28 10:32:49;;;;;;;8.05;1.90;;;;;;;23.80;35.68;101294.41;5076615;28;20420;-69
2022/06/28 10:35:29;;;;;;;4.57;1.55;;;;;;;23.81;35.33;101295.22;5075369;28;20427;-68
2022/06/28 10:38:07;;;;;;;11.45;3.92;;;;;;;24.18;34.71;101291.13;5080914;28;20068;-69
2022/06/28 10:40:50;;;;;;;9.15;4.35;;;;;;;23.83;34.84;101292.84;5065385;28;20053;-68
2022/06/28 10:43:42;;;;;;;7.45;4.00;;;;;;;24.01;34.69;101280.53;5086454;28;20057;-68
2022/06/28 10:46:10;;;;;;;7.53;2.40;;;;;;;23.98;34.81;101284.13;5044913;28;20052;-69
2022/06/28 10:48:50;;;;;;;6.93;2.25;;;;;;;24.01;34.62;101269.28;5068383;28;20538;-68
2022/06/28 10:51:20;;;;;;;7.80;2.97;;;;;;;24.35;34.49;101273.56;5042389;28;20639;-68
2022/06/28 10:53:57;;;;;;;7.55;2.65;;;;;;;24.30;35.01;101275.94;5069323;28;20287;-68
2022/06/28 10:56:25;;;;;;;9.63;2.13;;;;;;;24.14;34.72;101270.59;5062298;28;20526;-69
2022/06/28 10:59:00;;;;;;;6.40;1.70;;;;;;;24.37;34.47;101257.03;5079565;28;20757;-68
2022/06/28 11:01:39;;;;;;;8.70;1.88;;;;;;;24.78;33.64;101266.13;5066624;28;20064;-68
2022/06/28 11:04:11;;;;;;;8.18;1.80;;;;;;;24.90;34.05;101254.50;5057465;28;20048;-70
2022/06/28 11:06:43;;;;;;;5.20;1.77;;;;;;;25.19;33.24;101261.03;5084508;28;20048;-69
2022/06/28 11:09:26;;;;;;;5.38;1.75;;;;;;;24.61;33.19;101260.41;5067725;28;20052;-68
2022/06/28 11:12:13;;;;;;;5.60;1.38;;;;;;;24.55;34.02;101247.91;5045768;28;20048;-68
2022/06/28 11:14:46;;;;;;;4.93;1.70;;;;;;;24.66;33.36;101258.00;5061391;28;20443;-68
2022/06/28 11:17:16;;;;;;;4.45;1.70;;;;;;;24.85;33.32;101251.25;5074404;28;20411;-69
2022/06/28 11:19:50;;;;;;;;;;;;;;;24.84;33.25;101230.75;5043492;28;20085;-69
2022/06/28 11:22:19;;;;;;;4.05;1.15;;;;;;;25.06;32.23;101242.88;5059246;28;19920;-68
2022/06/28 11:24:47;;;;;;;4.45;1.27;;;;;;;25.12;32.36;101250.53;5062775;28;20044;-69
2022/06/28 11:27:21;;;;;;;3.67;1.45;;;;;;;25.27;32.68;101252.19;5065365;28;20059;-68
2022/06/28 11:30:01;;;;;;;7.85;1.80;;;;;;;25.29;31.48;101254.63;5072300;28;20044;-69
2022/06/28 11:32:36;;;;;;;;;;;;;;;25.26;31.10;101253.38;5058254;28;20135;-68
2022/06/28 11:35:07;;;;;;;5.65;1.30;;;;;;;25.23;31.08;101256.19;5047190;28;19928;-68
2022/06/28 11:37:48;;;;;;;4.18;1.23;;;;;;;25.36;31.87;101243.34;5070912;28;20574;-68
2022/06/28 11:40:20;;;;;;;6.70;1.40;;;;;;;25.18;32.05;101246.13;5066775;28;20636;-67
2022/06/28 11:42:59;;;;;;;6.60;1.38;;;;;;;25.02;33.01;101250.53;5038198;28;20049;-67
2022/06/28 11:45:30;;;;;;;7.20;1.33;;;;;;;24.98;32.54;101242.06;5075031;28;20059;-68
2022/06/28 11:48:02;;;;;;;6.15;1.80;;;;;;;24.87;32.62;101237.59;5078068;28;20056;-68
2022/06/28 11:50:39;;;;;;;3.53;1.23;;;;;;;25.11;32.39;101237.66;5022469;28;20059;-68
2022/06/28 11:53:07;;;;;;;8.63;1.20;;;;;;;25.27;31.61;101223.19;5040379;28;20041;-68
2022/06/28 11:55:43;;;;;;;2.70;0.98;;;;;;;25.33;32.48;101230.06;5073095;28;20059;-68
2022/06/28 11:58:19;;;;;;;6.70;1.33;;;;;;;25.56;32.43;101222.84;5046594;28;20052;-68
2022/06/28 12:01:07;;;;;;;5.22;1.30;;;;;;;26.03;31.53;101220.81;5082005;28;20071;-69